createdAt,value
2016-11-22T00:00:15.452Z,0
2016-11-22T00:01:15.780Z,0
2016-11-22T00:02:14.258Z,0
2016-11-22T00:03:15.319Z,0
2016-11-22T00:04:15.874Z,0
2016-11-22T00:05:15.179Z,0
2016-11-22T00:06:15.441Z,0
2016-11-22T00:07:14.767Z,0
2016-11-22T00:08:15.552Z,0
2016-11-22T00:09:14.706Z,0
2016-11-22T00:10:15.923Z,0
2016-11-22T00:11:15.072Z,0
2016-11-22T00:12:14.332Z,0
2016-11-22T00:13:15.218Z,0
2016-11-22T00:14:14.780Z,0
2016-11-22T00:15:15.378Z,0
2016-11-22T00:16:15.421Z,0
2016-11-22T00:17:15.421Z,0
2016-11-22T00:18:14.221Z,0
2016-11-22T00:19:15.110Z,0
2016-11-22T00:20:15.099Z,0
2016-11-22T00:21:15.010Z,0
2016-11-22T00:22:15.589Z,0
2016-11-22T00:23:14.631Z,0
2016-11-22T00:24:13.900Z,0
2016-11-22T00:25:15.653Z,0
2016-11-22T00:26:14.979Z,0
2016-11-22T00:27:14.939Z,0
2016-11-22T00:28:15.614Z,0
2016-11-22T00:29:14.429Z,0
2016-11-22T00:30:14.820Z,0
2016-11-22T00:31:15.430Z,0
2016-11-22T00:32:15.149Z,0
2016-11-22T00:33:15.431Z,0
2016-11-22T00:34:14.835Z,0
2016-11-22T00:35:15.175Z,0
2016-11-22T00:36:14.380Z,0
2016-11-22T00:37:14.709Z,0
2016-11-22T00:38:14.179Z,0
2016-11-22T00:39:14.978Z,0
2016-11-22T00:40:14.718Z,0
2016-11-22T00:41:14.078Z,0
2016-11-22T00:42:13.621Z,0
2016-11-22T00:43:14.560Z,0
2016-11-22T00:44:14.939Z,0
2016-11-22T00:45:14.873Z,0
2016-11-22T00:46:14.629Z,0
2016-11-22T00:47:13.999Z,0
2016-11-22T00:48:15.243Z,0
2016-11-22T00:49:14.262Z,0
2016-11-22T00:50:14.549Z,0
2016-11-22T00:51:14.789Z,0
2016-11-22T00:52:15.067Z,0
2016-11-22T00:53:14.440Z,0
2016-11-22T00:54:13.916Z,0
2016-11-22T00:55:15.090Z,0
2016-11-22T00:56:14.664Z,0
2016-11-22T00:57:14.077Z,0
2016-11-22T00:58:14.709Z,0
2016-11-22T00:59:14.639Z,0
2016-11-22T01:00:14.930Z,0
2016-11-22T01:01:14.618Z,0
2016-11-22T01:02:14.359Z,0
2016-11-22T01:03:14.979Z,0
2016-11-22T01:04:13.920Z,0
2016-11-22T01:05:13.922Z,0
2016-11-22T01:06:14.207Z,0
2016-11-22T01:07:14.892Z,0
2016-11-22T01:08:14.056Z,0
2016-11-22T01:09:14.040Z,0
2016-11-22T01:10:13.292Z,0
2016-11-22T01:11:14.207Z,0
2016-11-22T01:12:14.040Z,0
2016-11-22T01:13:14.211Z,0
2016-11-22T01:14:14.173Z,0
2016-11-22T01:15:14.361Z,0
2016-11-22T01:16:14.198Z,0
2016-11-22T01:17:14.721Z,0
2016-11-22T01:18:13.731Z,0
2016-11-22T01:19:14.260Z,0
2016-11-22T01:20:14.694Z,0
2016-11-22T01:21:13.185Z,0
2016-11-22T01:22:13.971Z,0
2016-11-22T01:23:13.503Z,0
2016-11-22T01:24:13.875Z,0
2016-11-22T01:25:13.147Z,0
2016-11-22T01:26:13.510Z,0
2016-11-22T01:27:13.901Z,0
2016-11-22T01:28:14.531Z,0
2016-11-22T01:29:14.377Z,0
2016-11-22T01:30:14.162Z,0
2016-11-22T01:31:14.082Z,0
2016-11-22T01:32:14.071Z,0
2016-11-22T01:33:13.901Z,0
2016-11-22T01:34:13.403Z,0
2016-11-22T01:35:13.981Z,0
2016-11-22T01:36:13.962Z,0
2016-11-22T01:37:13.222Z,0
2016-11-22T01:38:13.968Z,0
2016-11-22T01:39:14.186Z,0
2016-11-22T01:40:13.492Z,0
2016-11-22T01:41:13.654Z,0
2016-11-22T01:42:13.545Z,0
2016-11-22T01:43:13.841Z,0
2016-11-22T01:44:12.678Z,0
2016-11-22T01:45:13.622Z,0
2016-11-22T01:46:14.052Z,0
2016-11-22T01:47:13.132Z,0
2016-11-22T01:48:13.613Z,0
2016-11-22T01:49:13.112Z,0
2016-11-22T01:50:14.126Z,0
2016-11-22T01:51:13.679Z,0
2016-11-22T01:52:12.953Z,0
2016-11-22T01:53:13.241Z,0
2016-11-22T01:54:14.052Z,0
2016-11-22T01:55:13.392Z,0
2016-11-22T01:56:14.006Z,0
2016-11-22T01:57:13.592Z,0
2016-11-22T01:58:13.583Z,0
2016-11-22T01:59:12.701Z,0
2016-11-22T02:00:13.951Z,0
2016-11-22T02:01:13.271Z,0
2016-11-22T02:02:13.871Z,0
2016-11-22T02:03:13.292Z,0
2016-11-22T02:04:13.461Z,0
2016-11-22T02:05:12.572Z,0
2016-11-22T02:06:13.001Z,0
2016-11-22T02:07:13.001Z,0
2016-11-22T02:08:13.658Z,0
2016-11-22T02:09:13.350Z,0
2016-11-22T02:10:12.881Z,0
2016-11-22T02:11:12.755Z,0
2016-11-22T02:12:13.334Z,0
2016-11-22T02:13:13.721Z,0
2016-11-22T02:14:13.691Z,0
2016-11-22T02:15:12.844Z,0
2016-11-22T02:16:13.237Z,0
2016-11-22T02:17:12.724Z,0
2016-11-22T02:18:13.204Z,0
2016-11-22T02:19:13.260Z,0
2016-11-22T02:20:12.770Z,0
2016-11-22T02:21:13.448Z,0
2016-11-22T02:22:12.677Z,0
2016-11-22T02:23:13.525Z,0
2016-11-22T02:24:13.070Z,0
2016-11-22T02:25:13.460Z,0
2016-11-22T02:26:13.330Z,0
2016-11-22T02:27:12.639Z,0
2016-11-22T02:28:13.453Z,0
2016-11-22T02:29:13.412Z,0
2016-11-22T02:30:12.848Z,0
2016-11-22T02:31:13.388Z,0
2016-11-22T02:32:12.278Z,0
2016-11-22T02:33:12.929Z,0
2016-11-22T02:34:12.194Z,0
2016-11-22T02:35:13.376Z,0
2016-11-22T02:36:12.822Z,0
2016-11-22T02:37:13.261Z,0
2016-11-22T02:38:12.864Z,0
2016-11-22T02:39:12.823Z,0
2016-11-22T02:40:11.736Z,0
2016-11-22T02:41:11.679Z,0
2016-11-22T02:42:12.507Z,0
2016-11-22T02:43:12.320Z,0
2016-11-22T02:44:12.064Z,0
2016-11-22T02:45:11.855Z,0
2016-11-22T02:46:12.270Z,0
2016-11-22T02:47:11.923Z,0
2016-11-22T02:48:12.663Z,0
2016-11-22T02:49:12.817Z,0
2016-11-22T02:50:12.620Z,0
2016-11-22T02:51:12.330Z,0
2016-11-22T02:52:11.937Z,0
2016-11-22T02:53:11.912Z,0
2016-11-22T02:54:12.202Z,0
2016-11-22T02:55:12.531Z,0
2016-11-22T02:56:11.446Z,0
2016-11-22T02:57:12.468Z,0
2016-11-22T02:58:11.763Z,0
2016-11-22T02:59:12.306Z,0
2016-11-22T03:00:12.100Z,0
2016-11-22T03:01:11.267Z,0
2016-11-22T03:02:10.782Z,0
2016-11-22T03:03:11.662Z,0
2016-11-22T03:04:11.933Z,0
2016-11-22T03:05:11.605Z,0
2016-11-22T03:06:12.319Z,0
2016-11-22T03:07:12.176Z,0
2016-11-22T03:08:11.627Z,0
2016-11-22T03:09:11.127Z,0
2016-11-22T03:10:12.622Z,0
2016-11-22T03:11:12.223Z,0
2016-11-22T03:12:11.487Z,0
2016-11-22T03:13:12.597Z,0
2016-11-22T03:14:12.163Z,0
2016-11-22T03:15:11.864Z,0
2016-11-22T03:16:11.825Z,0
2016-11-22T03:17:11.872Z,0
2016-11-22T03:18:11.936Z,0
2016-11-22T03:19:11.682Z,0
2016-11-22T03:20:12.049Z,0
2016-11-22T03:21:12.054Z,0
2016-11-22T03:22:11.391Z,0
2016-11-22T03:23:11.697Z,0
2016-11-22T03:24:12.376Z,0
2016-11-22T03:25:11.956Z,0
2016-11-22T03:26:11.146Z,0
2016-11-22T03:27:11.690Z,0
2016-11-22T03:28:11.931Z,0
2016-11-22T03:29:11.275Z,0
2016-11-22T03:30:11.756Z,0
2016-11-22T03:31:11.547Z,0
2016-11-22T03:32:12.252Z,0
2016-11-22T03:33:11.406Z,0
2016-11-22T03:34:10.441Z,0
2016-11-22T03:35:10.957Z,0
2016-11-22T03:36:11.385Z,0
2016-11-22T03:37:12.167Z,0
2016-11-22T03:38:11.319Z,0
2016-11-22T03:39:10.567Z,0
2016-11-22T03:40:12.131Z,0
2016-11-22T03:41:11.711Z,0
2016-11-22T03:42:11.932Z,0
2016-11-22T03:43:10.916Z,0
2016-11-22T03:44:11.616Z,0
2016-11-22T03:45:11.200Z,0
2016-11-22T03:46:10.468Z,0
2016-11-22T03:47:11.565Z,0
2016-11-22T03:48:10.626Z,0
2016-11-22T03:49:11.592Z,0
2016-11-22T03:50:11.256Z,0
2016-11-22T03:51:10.826Z,0
2016-11-22T03:52:11.225Z,0
2016-11-22T03:53:11.095Z,0
2016-11-22T03:54:11.186Z,0
2016-11-22T03:55:11.446Z,0
2016-11-22T03:56:11.263Z,0
2016-11-22T03:57:11.395Z,0
2016-11-22T03:58:11.745Z,0
2016-11-22T03:59:10.720Z,0
2016-11-22T04:00:11.207Z,0
2016-11-22T04:01:11.715Z,0
2016-11-22T04:02:11.065Z,0
2016-11-22T04:03:11.141Z,0
2016-11-22T04:04:11.246Z,0
2016-11-22T04:05:11.106Z,0
2016-11-22T04:06:10.787Z,0
2016-11-22T04:07:11.207Z,0
2016-11-22T04:08:11.221Z,0
2016-11-22T04:09:11.166Z,0
2016-11-22T04:10:09.766Z,0
2016-11-22T04:11:10.977Z,0
2016-11-22T04:12:10.737Z,0
2016-11-22T04:13:11.560Z,0
2016-11-22T04:14:11.077Z,0
2016-11-22T04:15:10.726Z,0
2016-11-22T04:16:10.407Z,0
2016-11-22T04:17:10.366Z,0
2016-11-22T04:18:10.339Z,0
2016-11-22T04:19:10.011Z,0
2016-11-22T04:20:10.565Z,0
2016-11-22T04:21:10.633Z,0
2016-11-22T04:22:10.936Z,0
2016-11-22T04:23:10.913Z,0
2016-11-22T04:24:10.906Z,0
2016-11-22T04:25:10.886Z,0
2016-11-22T04:26:10.689Z,0
2016-11-22T04:27:10.695Z,0
2016-11-22T04:28:10.421Z,0
2016-11-22T04:29:10.490Z,0
2016-11-22T04:30:11.169Z,0
2016-11-22T04:31:10.346Z,0
2016-11-22T04:32:10.506Z,0
2016-11-22T04:33:10.467Z,0
2016-11-22T04:34:10.307Z,0
2016-11-22T04:35:10.849Z,0
2016-11-22T04:36:11.107Z,0
2016-11-22T04:37:10.396Z,0
2016-11-22T04:38:09.961Z,0
2016-11-22T04:39:09.816Z,0
2016-11-22T04:40:09.522Z,0
2016-11-22T04:41:09.756Z,0
2016-11-22T04:42:10.556Z,0
2016-11-22T04:43:10.288Z,0
2016-11-22T04:44:10.208Z,0
2016-11-22T04:45:09.538Z,0
2016-11-22T04:46:10.481Z,0
2016-11-22T04:47:09.898Z,0
2016-11-22T04:48:10.169Z,0
2016-11-22T04:49:09.396Z,0
2016-11-22T04:50:10.828Z,0
2016-11-22T04:51:10.429Z,0
2016-11-22T04:52:10.758Z,0
2016-11-22T04:53:10.134Z,0
2016-11-22T04:54:09.588Z,0
2016-11-22T04:55:10.309Z,0
2016-11-22T04:56:09.636Z,0
2016-11-22T04:57:09.715Z,0
2016-11-22T04:58:10.264Z,0
2016-11-22T04:59:09.240Z,0
2016-11-22T05:00:09.743Z,0
2016-11-22T05:01:09.140Z,0
2016-11-22T05:02:09.804Z,0
2016-11-22T05:03:09.900Z,0
2016-11-22T05:04:10.127Z,0
2016-11-22T05:05:09.569Z,0
2016-11-22T05:06:09.903Z,0
2016-11-22T05:07:09.489Z,0
2016-11-22T05:08:09.380Z,0
2016-11-22T05:09:09.621Z,0
2016-11-22T05:10:09.571Z,0
2016-11-22T05:11:09.270Z,0
2016-11-22T05:12:10.237Z,0
2016-11-22T05:13:09.661Z,0
2016-11-22T05:14:09.212Z,0
2016-11-22T05:15:09.534Z,0
2016-11-22T05:16:08.861Z,0
2016-11-22T05:17:09.653Z,0
2016-11-22T05:18:08.479Z,0
2016-11-22T05:19:09.212Z,0
2016-11-22T05:20:10.312Z,0
2016-11-22T05:21:09.532Z,0
2016-11-22T05:22:09.775Z,0
2016-11-22T05:23:09.656Z,0
2016-11-22T05:24:09.373Z,0
2016-11-22T05:25:08.993Z,0
2016-11-22T05:26:09.172Z,0
2016-11-22T05:27:09.413Z,0
2016-11-22T05:28:08.952Z,0
2016-11-22T05:29:09.242Z,0
2016-11-22T05:30:09.653Z,0
2016-11-22T05:31:09.641Z,0
2016-11-22T05:32:09.646Z,0
2016-11-22T05:33:08.863Z,0
2016-11-22T05:34:09.028Z,0
2016-11-22T05:35:09.178Z,0
2016-11-22T05:36:08.678Z,0
2016-11-22T05:37:08.754Z,0
2016-11-22T05:38:09.104Z,0
2016-11-22T05:39:09.094Z,0
2016-11-22T05:40:09.480Z,0
2016-11-22T05:41:09.461Z,0
2016-11-22T05:42:09.821Z,0
2016-11-22T05:43:09.465Z,0
2016-11-22T05:44:08.414Z,0
2016-11-22T05:45:08.765Z,0
2016-11-22T05:46:08.705Z,0
2016-11-22T05:47:09.354Z,0
2016-11-22T05:48:09.110Z,0
2016-11-22T05:49:09.275Z,0
2016-11-22T05:50:09.275Z,0
2016-11-22T05:51:09.684Z,0
2016-11-22T05:52:08.195Z,0
2016-11-22T05:53:08.846Z,0
2016-11-22T05:54:08.823Z,0
2016-11-22T05:55:09.086Z,0
2016-11-22T05:56:08.571Z,0
2016-11-22T05:57:08.835Z,0
2016-11-22T05:58:08.076Z,0
2016-11-22T05:59:08.245Z,0
2016-11-22T06:00:08.045Z,0
2016-11-22T06:01:09.103Z,0
2016-11-22T06:02:08.307Z,0
2016-11-22T06:03:09.046Z,0
2016-11-22T06:04:09.035Z,0
2016-11-22T06:05:08.667Z,0
2016-11-22T06:06:08.256Z,0
2016-11-22T06:07:09.294Z,0
2016-11-22T06:08:07.976Z,0
2016-11-22T06:09:08.963Z,0
2016-11-22T06:10:08.660Z,0
2016-11-22T06:11:07.933Z,0
2016-11-22T06:12:08.160Z,0
2016-11-22T06:13:08.136Z,0
2016-11-22T06:14:09.269Z,0
2016-11-22T06:15:09.055Z,0
2016-11-22T06:16:09.110Z,0
2016-11-22T06:17:09.207Z,0
2016-11-22T06:18:08.637Z,0
2016-11-22T06:19:08.515Z,0
2016-11-22T06:20:07.925Z,0
2016-11-22T06:21:08.206Z,0
2016-11-22T06:22:08.192Z,0
2016-11-22T06:23:08.359Z,0
2016-11-22T06:24:09.400Z,0
2016-11-22T06:25:08.325Z,0
2016-11-22T06:26:08.516Z,0
2016-11-22T06:27:07.741Z,0
2016-11-22T06:28:08.967Z,0
2016-11-22T06:29:07.938Z,0
2016-11-22T06:30:08.985Z,0
2016-11-22T06:31:08.515Z,4
2016-11-22T06:32:08.515Z,4
2016-11-22T06:33:08.250Z,4
2016-11-22T06:34:07.333Z,4
2016-11-22T06:35:07.862Z,4
2016-11-22T06:36:08.847Z,4
2016-11-22T06:37:07.487Z,4
2016-11-22T06:38:08.291Z,8
2016-11-22T06:39:08.252Z,8
2016-11-22T06:40:07.704Z,8
2016-11-22T06:41:07.901Z,8
2016-11-22T06:42:08.316Z,12
2016-11-22T06:43:08.315Z,16
2016-11-22T06:44:07.869Z,16
2016-11-22T06:45:08.267Z,16
2016-11-22T06:46:08.104Z,20
2016-11-22T06:47:08.237Z,24
2016-11-22T06:48:07.677Z,28
2016-11-22T06:49:07.798Z,32
2016-11-22T06:50:08.193Z,32
2016-11-22T06:51:08.007Z,36
2016-11-22T06:52:07.313Z,44
2016-11-22T06:53:07.263Z,44
2016-11-22T06:54:07.680Z,52
2016-11-22T06:55:07.673Z,52
2016-11-22T06:56:07.656Z,60
2016-11-22T06:57:08.035Z,64
2016-11-22T06:58:07.677Z,68
2016-11-22T06:59:08.013Z,76
2016-11-22T07:00:07.986Z,76
2016-11-22T07:01:08.087Z,84
2016-11-22T07:02:07.531Z,88
2016-11-22T07:03:07.394Z,96
2016-11-22T07:04:07.888Z,100
2016-11-22T07:05:07.267Z,108
2016-11-22T07:06:07.252Z,116
2016-11-22T07:07:07.117Z,124
2016-11-22T07:08:07.837Z,132
2016-11-22T07:09:07.084Z,144
2016-11-22T07:10:06.928Z,156
2016-11-22T07:11:07.029Z,172
2016-11-22T07:12:07.405Z,188
2016-11-22T07:13:07.373Z,200
2016-11-22T07:14:06.738Z,216
2016-11-22T07:15:07.071Z,232
2016-11-22T07:16:07.981Z,252
2016-11-22T07:17:07.133Z,272
2016-11-22T07:18:07.181Z,292
2016-11-22T07:19:06.888Z,316
2016-11-22T07:20:07.437Z,340
2016-11-22T07:21:07.176Z,364
2016-11-22T07:22:07.496Z,396
2016-11-22T07:23:06.435Z,424
2016-11-22T07:24:07.957Z,452
2016-11-22T07:25:06.432Z,480
2016-11-22T07:26:06.197Z,508
2016-11-22T07:27:07.233Z,536
2016-11-22T07:28:07.481Z,564
2016-11-22T07:29:06.764Z,588
2016-11-22T07:30:07.893Z,616
2016-11-22T07:31:06.327Z,644
2016-11-22T07:32:06.756Z,672
2016-11-22T07:33:07.332Z,704
2016-11-22T07:34:06.691Z,732
2016-11-22T07:35:07.106Z,772
2016-11-22T07:36:06.284Z,808
2016-11-22T07:37:07.295Z,852
2016-11-22T07:38:06.626Z,896
2016-11-22T07:39:07.244Z,944
2016-11-22T07:40:06.456Z,1004
2016-11-22T07:41:07.197Z,1064
2016-11-22T07:42:07.618Z,1116
2016-11-22T07:43:06.940Z,1168
2016-11-22T07:44:07.102Z,1212
2016-11-22T07:45:06.941Z,1244
2016-11-22T07:46:06.695Z,1272
2016-11-22T07:47:06.709Z,1292
2016-11-22T07:48:07.101Z,1292
2016-11-22T07:49:06.677Z,1308
2016-11-22T07:50:06.255Z,1368
2016-11-22T07:51:06.775Z,1452
2016-11-22T07:52:06.975Z,1548
2016-11-22T07:53:07.255Z,1640
2016-11-22T07:54:05.351Z,1720
2016-11-22T07:55:05.832Z,1792
2016-11-22T07:56:06.803Z,1860
2016-11-22T07:57:06.775Z,1912
2016-11-22T07:58:06.961Z,1956
2016-11-22T07:59:06.514Z,2016
2016-11-22T08:00:06.845Z,2104
2016-11-22T08:01:07.234Z,2204
2016-11-22T08:02:06.276Z,2276
2016-11-22T08:03:06.503Z,2332
2016-11-22T08:04:05.915Z,2356
2016-11-22T08:05:06.215Z,2368
2016-11-22T08:06:06.343Z,2400
2016-11-22T08:07:07.157Z,2448
2016-11-22T08:08:06.564Z,2512
2016-11-22T08:09:05.543Z,2612
2016-11-22T08:10:06.691Z,2728
2016-11-22T08:11:05.673Z,2844
2016-11-22T08:12:06.533Z,2980
2016-11-22T08:13:06.653Z,3124
2016-11-22T08:14:06.050Z,3236
2016-11-22T08:15:05.595Z,3336
2016-11-22T08:16:06.583Z,3440
2016-11-22T08:17:05.900Z,3472
2016-11-22T08:18:06.508Z,3392
2016-11-22T08:19:06.365Z,3240
2016-11-22T08:20:05.517Z,3172
2016-11-22T08:21:05.820Z,3224
2016-11-22T08:22:06.848Z,3420
2016-11-22T08:23:06.029Z,3572
2016-11-22T08:24:06.434Z,3796
2016-11-22T08:25:06.379Z,4108
2016-11-22T08:26:05.262Z,4340
2016-11-22T08:27:06.622Z,4460
2016-11-22T08:28:06.222Z,4588
2016-11-22T08:29:05.782Z,4840
2016-11-22T08:30:05.931Z,5100
2016-11-22T08:31:05.480Z,5352
2016-11-22T08:32:05.952Z,5704
2016-11-22T08:33:04.862Z,6068
2016-11-22T08:34:06.539Z,6864
2016-11-22T08:35:06.664Z,6784
2016-11-22T08:36:05.675Z,6952
2016-11-22T08:37:05.520Z,7252
2016-11-22T08:38:05.009Z,7704
2016-11-22T08:39:06.015Z,8256
2016-11-22T08:40:05.712Z,9684
2016-11-22T08:41:05.387Z,10184
2016-11-22T08:42:06.213Z,9792
2016-11-22T08:43:06.094Z,8896
2016-11-22T08:44:05.644Z,8812
2016-11-22T08:45:06.473Z,8820
2016-11-22T08:46:05.873Z,9112
2016-11-22T08:47:05.027Z,9120
2016-11-22T08:48:05.848Z,8956
2016-11-22T08:49:05.729Z,8768
2016-11-22T08:50:04.871Z,9992
2016-11-22T08:51:05.387Z,10744
2016-11-22T08:52:05.932Z,6948
2016-11-22T08:53:06.006Z,6980
2016-11-22T08:54:05.895Z,5312
2016-11-22T08:55:05.193Z,4324
2016-11-22T08:56:06.262Z,3848
2016-11-22T08:57:05.413Z,3348
2016-11-22T08:58:05.452Z,2820
2016-11-22T08:59:05.139Z,2392
2016-11-22T09:00:05.511Z,2176
2016-11-22T09:01:05.102Z,2144
2016-11-22T09:02:05.303Z,2180
2016-11-22T09:03:05.963Z,2284
2016-11-22T09:04:04.933Z,2500
2016-11-22T09:05:04.847Z,2596
2016-11-22T09:06:05.452Z,2688
2016-11-22T09:07:04.852Z,2696
2016-11-22T09:08:05.379Z,2780
2016-11-22T09:09:04.847Z,2860
2016-11-22T09:10:04.633Z,3144
2016-11-22T09:11:05.442Z,3440
2016-11-22T09:12:06.017Z,3668
2016-11-22T09:13:05.979Z,3764
2016-11-22T09:14:04.547Z,3692
2016-11-22T09:15:04.875Z,3648
2016-11-22T09:16:05.553Z,3724
2016-11-22T09:17:05.483Z,3860
2016-11-22T09:18:05.108Z,3896
2016-11-22T09:19:04.335Z,3964
2016-11-22T09:20:05.932Z,4076
2016-11-22T09:21:03.942Z,4260
2016-11-22T09:22:05.462Z,4380
2016-11-22T09:23:05.173Z,4360
2016-11-22T09:24:04.999Z,4252
2016-11-22T09:25:04.716Z,4116
2016-11-22T09:26:05.758Z,4104
2016-11-22T09:27:04.873Z,4224
2016-11-22T09:28:05.292Z,4412
2016-11-22T09:29:05.279Z,4476
2016-11-22T09:30:05.269Z,4584
2016-11-22T09:31:05.486Z,4736
2016-11-22T09:32:04.896Z,4888
2016-11-22T09:33:04.793Z,5400
2016-11-22T09:34:04.942Z,6780
2016-11-22T09:35:04.513Z,8164
2016-11-22T09:36:05.142Z,11344
2016-11-22T09:37:05.524Z,9032
2016-11-22T09:38:04.375Z,8036
2016-11-22T09:39:04.823Z,7972
2016-11-22T09:40:03.942Z,8012
2016-11-22T09:41:04.259Z,7776
2016-11-22T09:42:04.809Z,7708
2016-11-22T09:43:04.114Z,7760
2016-11-22T09:44:04.615Z,7868
2016-11-22T09:45:04.797Z,7420
2016-11-22T09:46:05.111Z,7208
2016-11-22T09:47:04.615Z,7140
2016-11-22T09:48:04.053Z,7180
2016-11-22T09:49:04.165Z,6372
2016-11-22T09:50:04.265Z,6280
2016-11-22T09:51:05.030Z,6724
2016-11-22T09:52:04.244Z,6524
2016-11-22T09:53:04.730Z,6712
2016-11-22T09:54:04.870Z,6764
2016-11-22T09:55:03.752Z,7404
2016-11-22T09:56:04.671Z,7684
2016-11-22T09:57:04.808Z,7620
2016-11-22T09:58:04.044Z,7784
2016-11-22T09:59:04.392Z,7192
2016-11-22T10:00:04.243Z,7252
2016-11-22T10:01:03.783Z,7364
2016-11-22T10:02:04.723Z,7276
2016-11-22T10:03:05.128Z,7684
2016-11-22T10:04:04.698Z,7832
2016-11-22T10:05:04.033Z,11344
2016-11-22T10:06:03.914Z,8100
2016-11-22T10:07:04.629Z,8396
2016-11-22T10:08:04.604Z,9488
2016-11-22T10:09:03.703Z,10348
2016-11-22T10:10:05.037Z,8804
2016-11-22T10:11:04.203Z,8208
2016-11-22T10:12:03.819Z,7616
2016-11-22T10:13:04.795Z,7376
2016-11-22T10:14:04.520Z,6976
2016-11-22T10:15:04.086Z,6440
2016-11-22T10:16:04.523Z,6340
2016-11-22T10:17:04.183Z,6296
2016-11-22T10:18:03.553Z,6360
2016-11-22T10:19:03.732Z,6472
2016-11-22T10:20:03.537Z,6492
2016-11-22T10:21:04.398Z,6448
2016-11-22T10:22:03.428Z,7020
2016-11-22T10:23:03.813Z,8948
2016-11-22T10:24:04.774Z,7120
2016-11-22T10:25:03.702Z,6804
2016-11-22T10:26:03.933Z,6952
2016-11-22T10:27:03.941Z,6732
2016-11-22T10:28:03.244Z,6628
2016-11-22T10:29:04.261Z,6328
2016-11-22T10:30:03.698Z,6184
2016-11-22T10:31:03.194Z,6092
2016-11-22T10:32:03.669Z,6296
2016-11-22T10:33:03.807Z,5996
2016-11-22T10:34:03.645Z,5816
2016-11-22T10:35:04.179Z,5968
2016-11-22T10:36:03.354Z,5752
2016-11-22T10:37:04.431Z,5588
2016-11-22T10:38:03.084Z,5508
2016-11-22T10:39:03.801Z,5340
2016-11-22T10:40:03.449Z,5092
2016-11-22T10:41:03.780Z,4848
2016-11-22T10:42:04.078Z,4556
2016-11-22T10:43:03.903Z,4164
2016-11-22T10:44:03.430Z,3872
2016-11-22T10:45:03.638Z,3628
2016-11-22T10:46:03.990Z,3532
2016-11-22T10:47:03.354Z,3544
2016-11-22T10:48:03.111Z,3628
2016-11-22T10:49:03.524Z,3684
2016-11-22T10:50:03.075Z,3832
2016-11-22T10:51:04.169Z,3972
2016-11-22T10:52:03.214Z,4168
2016-11-22T10:53:02.756Z,4388
2016-11-22T10:54:04.734Z,4676
2016-11-22T10:55:03.975Z,4736
2016-11-22T10:56:03.687Z,4796
2016-11-22T10:57:03.844Z,5168
2016-11-22T10:58:03.386Z,5604
2016-11-22T10:59:04.179Z,7320
2016-11-22T11:00:03.395Z,12568
2016-11-22T11:01:03.604Z,12712
2016-11-22T11:02:03.744Z,9112
2016-11-22T11:03:03.602Z,7292
2016-11-22T11:04:02.415Z,6288
2016-11-22T11:05:03.084Z,5352
2016-11-22T11:06:03.521Z,4900
2016-11-22T11:07:04.054Z,4540
2016-11-22T11:08:03.024Z,4284
2016-11-22T11:09:03.384Z,4092
2016-11-22T11:10:03.891Z,3988
2016-11-22T11:11:03.285Z,3980
2016-11-22T11:12:03.223Z,4036
2016-11-22T11:13:03.604Z,4004
2016-11-22T11:14:03.214Z,3964
2016-11-22T11:15:03.806Z,3992
2016-11-22T11:16:03.392Z,3964
2016-11-22T11:17:03.968Z,3972
2016-11-22T11:18:03.513Z,4048
2016-11-22T11:19:02.425Z,4120
2016-11-22T11:20:03.226Z,4124
2016-11-22T11:21:03.179Z,4172
2016-11-22T11:22:03.108Z,4284
2016-11-22T11:23:03.795Z,4324
2016-11-22T11:24:03.169Z,4344
2016-11-22T11:25:03.227Z,4396
2016-11-22T11:26:03.355Z,4428
2016-11-22T11:27:02.711Z,4444
2016-11-22T11:28:03.355Z,4460
2016-11-22T11:29:03.574Z,4576
2016-11-22T11:30:01.984Z,4788
2016-11-22T11:31:03.283Z,5144
2016-11-22T11:32:02.188Z,5832
2016-11-22T11:33:02.845Z,7020
2016-11-22T11:34:02.975Z,6748
2016-11-22T11:35:03.213Z,6424
2016-11-22T11:36:02.968Z,6356
2016-11-22T11:37:02.446Z,6440
2016-11-22T11:38:02.789Z,7096
2016-11-22T11:39:02.431Z,7032
2016-11-22T11:40:02.903Z,6896
2016-11-22T11:41:02.183Z,7084
2016-11-22T11:42:02.045Z,7056
2016-11-22T11:43:02.311Z,6940
2016-11-22T11:44:03.474Z,6908
2016-11-22T11:45:03.413Z,6992
2016-11-22T11:46:02.155Z,7052
2016-11-22T11:47:02.808Z,6952
2016-11-22T11:48:02.672Z,7332
2016-11-22T11:49:02.728Z,7768
2016-11-22T11:50:03.112Z,8476
2016-11-22T11:51:02.318Z,9120
2016-11-22T11:52:01.555Z,9220
2016-11-22T11:53:02.748Z,9980
2016-11-22T11:54:02.975Z,10464
2016-11-22T11:55:02.673Z,7936
2016-11-22T11:56:01.904Z,7400
2016-11-22T11:57:03.178Z,7676
2016-11-22T11:58:02.436Z,8412
2016-11-22T11:59:01.981Z,7564
2016-11-22T12:00:02.696Z,6716
2016-11-22T12:01:02.389Z,6800
2016-11-22T12:02:01.991Z,6376
2016-11-22T12:03:03.257Z,5952
2016-11-22T12:04:03.166Z,6368
2016-11-22T12:05:03.266Z,7096
2016-11-22T12:06:02.756Z,6836
2016-11-22T12:07:03.010Z,7632
2016-11-22T12:08:01.254Z,6700
2016-11-22T12:09:02.061Z,6052
2016-11-22T12:10:02.723Z,6484
2016-11-22T12:11:02.715Z,6112
2016-11-22T12:12:02.665Z,5568
2016-11-22T12:13:03.044Z,5884
2016-11-22T12:14:02.496Z,5956
2016-11-22T12:15:01.738Z,6224
2016-11-22T12:16:02.158Z,5896
2016-11-22T12:17:03.066Z,5544
2016-11-22T12:18:02.432Z,5616
2016-11-22T12:19:02.536Z,5600
2016-11-22T12:20:02.396Z,5128
2016-11-22T12:21:02.490Z,4836
2016-11-22T12:22:02.513Z,5212
2016-11-22T12:23:01.754Z,5380
2016-11-22T12:24:02.482Z,4652
2016-11-22T12:25:02.920Z,4376
2016-11-22T12:26:02.456Z,4252
2016-11-22T12:27:01.754Z,3872
2016-11-22T12:28:02.006Z,3892
2016-11-22T12:29:01.836Z,4812
2016-11-22T12:30:01.309Z,3996
2016-11-22T12:31:02.349Z,3396
2016-11-22T12:32:02.203Z,3380
2016-11-22T12:33:02.749Z,3724
2016-11-22T12:34:02.076Z,3928
2016-11-22T12:35:02.770Z,3520
2016-11-22T12:36:01.407Z,3556
2016-11-22T12:37:02.261Z,3148
2016-11-22T12:38:02.245Z,3076
2016-11-22T12:39:01.572Z,4072
2016-11-22T12:40:01.295Z,4372
2016-11-22T12:41:01.381Z,3860
2016-11-22T12:42:01.935Z,3708
2016-11-22T12:43:02.565Z,3596
2016-11-22T12:44:02.168Z,3692
2016-11-22T12:45:01.524Z,4476
2016-11-22T12:46:02.525Z,4620
2016-11-22T12:47:01.674Z,4856
2016-11-22T12:48:02.358Z,4744
2016-11-22T12:49:01.664Z,4724
2016-11-22T12:50:00.654Z,5040
2016-11-22T12:51:02.284Z,4880
2016-11-22T12:52:02.158Z,5012
2016-11-22T12:53:01.673Z,4332
2016-11-22T12:54:02.444Z,4088
2016-11-22T12:55:01.554Z,4252
2016-11-22T12:56:01.573Z,4388
2016-11-22T12:57:01.314Z,4404
2016-11-22T12:58:01.261Z,3960
2016-11-22T12:59:02.302Z,3784
2016-11-22T13:00:01.920Z,3704
2016-11-22T13:01:02.295Z,3716
2016-11-22T13:02:01.856Z,3732
2016-11-22T13:03:01.874Z,3708
2016-11-22T13:04:01.398Z,3680
2016-11-22T13:05:05.196Z,3760
2016-11-22T13:06:01.291Z,3860
2016-11-22T13:07:01.451Z,4240
2016-11-22T13:08:02.144Z,4264
2016-11-22T13:09:02.174Z,5332
2016-11-22T13:10:01.190Z,6144
2016-11-22T13:11:01.220Z,7500
2016-11-22T13:12:01.039Z,8040
2016-11-22T13:13:01.649Z,7180
2016-11-22T13:14:00.919Z,6824
2016-11-22T13:15:01.660Z,7240
2016-11-22T13:16:01.650Z,5944
2016-11-22T13:17:01.451Z,5616
2016-11-22T13:18:00.447Z,5324
2016-11-22T13:19:01.585Z,5100
2016-11-22T13:20:01.168Z,4260
2016-11-22T13:21:01.537Z,3936
2016-11-22T13:22:00.935Z,3824
2016-11-22T13:23:01.258Z,3988
2016-11-22T13:24:01.426Z,3804
2016-11-22T13:25:01.461Z,3732
2016-11-22T13:26:01.881Z,4012
2016-11-22T13:27:01.458Z,4448
2016-11-22T13:28:01.146Z,4060
2016-11-22T13:29:00.518Z,3864
2016-11-22T13:30:00.924Z,3948
2016-11-22T13:31:00.866Z,4572
2016-11-22T13:32:01.154Z,4720
2016-11-22T13:33:00.968Z,4672
2016-11-22T13:34:01.215Z,5392
2016-11-22T13:35:01.298Z,6228
2016-11-22T13:36:00.834Z,5296
2016-11-22T13:37:01.076Z,3652
2016-11-22T13:38:00.545Z,5612
2016-11-22T13:39:00.206Z,2796
2016-11-22T13:40:01.255Z,2348
2016-11-22T13:41:00.992Z,2140
2016-11-22T13:42:01.100Z,2000
2016-11-22T13:43:00.948Z,1892
2016-11-22T13:44:00.759Z,1784
2016-11-22T13:45:01.634Z,1688
2016-11-22T13:46:00.865Z,1616
2016-11-22T13:47:01.113Z,1552
2016-11-22T13:47:59.612Z,1492
2016-11-22T13:49:00.966Z,1408
2016-11-22T13:49:59.836Z,1308
2016-11-22T13:51:00.408Z,1204
2016-11-22T13:52:01.317Z,1116
2016-11-22T13:53:00.622Z,1052
2016-11-22T13:54:01.465Z,1000
2016-11-22T13:55:01.001Z,956
2016-11-22T13:56:01.255Z,920
2016-11-22T13:57:01.208Z,900
2016-11-22T13:58:01.529Z,892
2016-11-22T13:59:00.355Z,880
2016-11-22T14:00:00.663Z,860
2016-11-22T14:01:00.520Z,832